Time;durP1;ratioP1;P1;durP2;ratioP2;P2;SDS_P1;SDS_P2;PMS_P1;PMS_P2;Temp;Humidity;BMP_temperature;BMP_pressure;BME280_temperature;BME280_humidity;BME280_pressure;Samples;Min_cycle;Max_cycle;Signal;HPM_P1;HPM_P2
2021/07/10 00:01:27;;;;;;;17.00;14.73;;;15.50;99.90;;;;;;3589513;40;20243;-77
2021/07/10 00:03:54;;;;;;;17.05;13.63;;;15.50;99.90;;;;;;3589344;40;20533;-77
2021/07/10 00:06:21;;;;;;;19.10;15.45;;;15.40;99.90;;;;;;3588717;40;20254;-77
2021/07/10 00:08:48;;;;;;;19.42;15.20;;;15.50;99.90;;;;;;3588992;40;20249;-77
2021/07/10 00:11:15;;;;;;;20.63;17.25;;;15.40;99.90;;;;;;3588892;40;20298;-77
2021/07/10 00:13:42;;;;;;;23.13;16.60;;;15.60;99.90;;;;;;3589464;40;20310;-77
2021/07/10 00:16:10;;;;;;;19.25;15.98;;;15.70;99.90;;;;;;3589804;40;20226;-77
2021/07/10 00:18:37;;;;;;;20.40;16.20;;;15.60;99.90;;;;;;3589459;40;20251;-77
2021/07/10 00:21:04;;;;;;;18.90;14.68;;;15.60;99.90;;;;;;3589606;40;20243;-78
2021/07/10 00:23:32;;;;;;;19.65;17.05;;;15.60;99.90;;;;;;3589985;40;20239;-78
2021/07/10 00:26:04;;;;;;;20.45;17.17;;;15.60;99.90;;;;;;3589475;40;20500;-77
2021/07/10 00:28:31;;;;;;;19.70;16.58;;;15.60;99.90;;;;;;3595105;40;20234;-77
2021/07/10 00:30:58;;;;;;;20.00;16.73;;;15.80;99.90;;;;;;3599290;40;20246;-77
2021/07/10 00:33:27;;;;;;;19.80;16.00;;;15.90;99.90;;;;;;3590807;40;20235;-77
2021/07/10 00:35:54;;;;;;;25.42;17.98;;;16.00;99.90;;;;;;3599706;40;20343;-78
2021/07/10 00:38:21;;;;;;;24.42;17.55;;;16.10;99.90;;;;;;3599380;40;20496;-77
2021/07/10 00:40:48;;;;;;;21.92;18.05;;;16.20;99.90;;;;;;3599718;40;20258;-79
2021/07/10 00:43:15;;;;;;;20.77;15.00;;;16.30;99.90;;;;;;3600031;40;20214;-78
2021/07/10 00:45:42;;;;;;;20.42;18.38;;;16.20;99.90;;;;;;3599676;40;20227;-79
2021/07/10 00:48:09;;;;;;;16.95;15.15;;;16.30;99.90;;;;;;3599958;40;20250;-77
2021/07/10 00:50:37;;;;;;;20.67;16.50;;;16.30;99.90;;;;;;3599858;40;20628;-78
2021/07/10 00:53:04;;;;;;;21.25;17.10;;;16.10;99.90;;;;;;3599659;40;20231;-77
2021/07/10 00:55:32;;;;;;;16.42;14.85;;;16.10;99.90;;;;;;3599924;40;20249;-78
2021/07/10 00:57:59;;;;;;;19.50;14.73;;;16.10;99.90;;;;;;3599749;40;20250;-78
2021/07/10 01:00:27;;;;;;;27.25;18.00;;;15.90;99.90;;;;;;3599768;40;20234;-78
2021/07/10 01:02:57;;;;;;;18.38;15.88;;;15.80;99.90;;;;;;3590834;40;20261;-83
2021/07/10 01:05:25;;;;;;;26.42;15.57;;;15.90;99.90;;;;;;3599113;40;20530;-77
2021/07/10 01:07:55;;;;;;;19.27;16.83;;;15.80;99.90;;;;;;3598872;40;20227;-77
2021/07/10 01:10:22;;;;;;;23.15;16.17;;;15.70;99.90;;;;;;3590723;40;20410;-78
2021/07/10 01:12:51;;;;;;;23.80;18.27;;;15.90;99.90;;;;;;3598513;40;20246;-81
2021/07/10 01:15:20;;;;;;;21.67;13.93;;;16.10;99.90;;;;;;3599213;40;20249;-79
2021/07/10 01:17:48;;;;;;;16.85;15.15;;;16.00;99.90;;;;;;3599004;40;20551;-78
2021/07/10 01:20:17;;;;;;;17.77;15.75;;;16.00;99.90;;;;;;3589969;40;20541;-78
2021/07/10 01:22:48;;;;;;;23.17;16.42;;;15.80;99.90;;;;;;3589387;40;20243;-78
2021/07/10 01:25:17;;;;;;;20.63;16.95;;;15.80;99.90;;;;;;3589358;40;20239;-77
2021/07/10 01:27:45;;;;;;;18.08;16.17;;;15.90;99.90;;;;;;3582538;40;20296;-77
2021/07/10 01:30:14;;;;;;;19.40;15.88;;;15.90;99.90;;;;;;3599193;40;20230;-77
2021/07/10 01:32:43;;;;;;;18.58;15.23;;;15.90;99.90;;;;;;3599292;40;20246;-78
2021/07/10 01:35:11;;;;;;;16.23;14.63;;;15.80;99.90;;;;;;3599563;40;20633;-76
2021/07/10 01:37:41;;;;;;;17.77;15.98;;;15.80;99.90;;;;;;3599229;40;20620;-77
2021/07/10 01:40:14;;;;;;;20.95;15.73;;;15.80;99.90;;;;;;3598977;40;20347;-77
2021/07/10 01:42:41;;;;;;;19.95;15.55;;;15.60;99.90;;;;;;3598941;40;20254;-77
2021/07/10 01:45:09;;;;;;;17.80;14.52;;;15.60;99.90;;;;;;3599095;40;20277;-77
2021/07/10 01:47:36;;;;;;;16.00;14.30;;;15.70;99.90;;;;;;3598865;40;20215;-77
2021/07/10 01:50:06;;;;;;;18.20;15.50;;;15.60;99.90;;;;;;3598042;40;20239;-77
2021/07/10 01:52:34;;;;;;;16.67;14.15;;;15.60;99.90;;;;;;3599203;40;20701;-77
2021/07/10 01:55:03;;;;;;;24.75;15.95;;;15.30;99.90;;;;;;3598456;40;20557;-77
2021/07/10 01:57:31;;;;;;;21.15;15.88;;;15.10;99.90;;;;;;3598786;40;20320;-77
2021/07/10 01:59:58;;;;;;;20.80;17.17;;;14.90;99.90;;;;;;3598441;40;20526;-76
2021/07/10 02:02:25;;;;;;;21.23;14.35;;;14.90;99.90;;;;;;3599117;40;20242;-78
2021/07/10 02:04:53;;;;;;;18.77;15.27;;;14.90;99.90;;;;;;3598707;40;20623;-77
2021/07/10 02:07:20;;;;;;;23.48;14.73;;;14.80;99.90;;;;;;3598747;40;20249;-77
2021/07/10 02:09:47;;;;;;;18.33;14.82;;;14.90;99.90;;;;;;3598930;40;20238;-78
2021/07/10 02:12:15;;;;;;;16.92;15.27;;;15.00;99.90;;;;;;3598840;40;20500;-77
2021/07/10 02:14:44;;;;;;;22.15;16.38;;;15.00;99.90;;;;;;3599614;40;20239;-78
2021/07/10 02:17:11;;;;;;;18.42;16.33;;;15.00;99.90;;;;;;3599643;40;20241;-77
2021/07/10 02:19:38;;;;;;;20.33;17.08;;;14.80;99.90;;;;;;3599018;40;20518;-77
2021/07/10 02:22:06;;;;;;;21.42;18.13;;;14.80;99.90;;;;;;3601794;40;20245;-78
2021/07/10 02:24:34;;;;;;;19.73;17.38;;;14.80;99.90;;;;;;3593768;40;20245;-78
2021/07/10 02:27:01;;;;;;;18.80;16.90;;;14.70;99.90;;;;;;3602364;40;20242;-78
2021/07/10 02:29:28;;;;;;;18.75;15.85;;;14.70;99.90;;;;;;3594642;40;20234;-79
2021/07/10 02:31:57;;;;;;;25.50;19.88;;;14.60;99.90;;;;;;3591938;40;20327;-76
2021/07/10 02:34:24;;;;;;;20.75;17.85;;;14.70;99.90;;;;;;3599097;40;20227;-76
2021/07/10 02:36:51;;;;;;;26.95;21.58;;;14.70;99.90;;;;;;3592183;40;20659;-77
2021/07/10 02:39:18;;;;;;;21.63;18.10;;;14.80;99.90;;;;;;3592203;40;20246;-78
2021/07/10 02:41:45;;;;;;;20.88;18.20;;;14.70;99.90;;;;;;3592353;40;20242;-77
2021/07/10 02:44:12;;;;;;;23.50;16.95;;;14.60;99.90;;;;;;3592220;40;20243;-78
2021/07/10 02:46:39;;;;;;;27.80;18.77;;;14.50;99.90;;;;;;3591951;40;20736;-80
2021/07/10 02:49:08;;;;;;;26.85;18.05;;;14.60;99.90;;;;;;3592179;40;20289;-77
2021/07/10 02:51:35;;;;;;;20.58;17.85;;;14.40;99.90;;;;;;3592159;40;20255;-79
2021/07/10 02:54:02;;;;;;;24.88;17.73;;;14.30;99.90;;;;;;3592259;40;20665;-79
2021/07/10 02:56:29;;;;;;;23.27;18.98;;;14.50;99.90;;;;;;3592231;40;20239;-79
2021/07/10 02:58:56;;;;;;;21.58;18.58;;;14.40;99.90;;;;;;3592047;40;20651;-77
2021/07/10 03:01:23;;;;;;;22.83;16.60;;;14.40;99.90;;;;;;3591682;40;20242;-78
2021/07/10 03:03:50;;;;;;;18.98;16.55;;;14.50;99.90;;;;;;3592176;40;20720;-78
2021/07/10 03:06:19;;;;;;;25.02;18.17;;;14.70;99.90;;;;;;3592064;40;20242;-79
2021/07/10 03:08:46;;;;;;;26.52;17.45;;;14.50;99.90;;;;;;3592006;40;20242;-77
2021/07/10 03:11:14;;;;;;;17.73;15.93;;;14.40;99.90;;;;;;3592086;40;20211;-77
2021/07/10 03:13:41;;;;;;;22.98;18.08;;;14.20;99.90;;;;;;3592065;40;20246;-77
2021/07/10 03:16:08;;;;;;;20.90;17.83;;;14.00;99.90;;;;;;3591933;40;20235;-77
2021/07/10 03:18:36;;;;;;;20.25;16.20;;;14.00;99.90;;;;;;3591947;40;20581;-78
2021/07/10 03:21:03;;;;;;;22.23;16.92;;;14.00;99.90;;;;;;3591513;40;20343;-78
2021/07/10 03:23:31;;;;;;;21.13;16.05;;;13.90;99.90;;;;;;3591581;40;20231;-77
2021/07/10 03:25:59;;;;;;;25.35;18.83;;;13.90;99.90;;;;;;3597549;39;20249;-79
2021/07/10 03:28:25;;;;;;;25.35;17.95;;;13.90;99.90;;;;;;3597055;39;20254;-77
2021/07/10 03:30:53;;;;;;;32.42;19.48;;;14.00;99.90;;;;;;3591863;40;20223;-78
2021/07/10 03:33:21;;;;;;;24.85;18.63;;;14.00;99.90;;;;;;3591874;40;20235;-77
2021/07/10 03:35:48;;;;;;;26.38;17.20;;;14.10;99.90;;;;;;3591911;40;20702;-77
2021/07/10 03:38:15;;;;;;;21.73;18.33;;;14.10;99.90;;;;;;3591841;40;20227;-77
2021/07/10 03:40:44;;;;;;;21.38;18.55;;;14.20;99.90;;;;;;3592447;40;20239;-78
2021/07/10 03:43:12;;;;;;;21.10;18.55;;;14.10;99.90;;;;;;3593475;40;20239;-77
2021/07/10 03:45:39;;;;;;;25.35;16.95;;;14.30;99.90;;;;;;3593452;40;20235;-77
2021/07/10 03:48:07;;;;;;;24.83;18.27;;;14.20;99.90;;;;;;3593320;40;20235;-78
2021/07/10 03:50:34;;;;;;;22.13;19.85;;;14.30;99.90;;;;;;3593254;40;20239;-77
2021/07/10 03:53:02;;;;;;;21.00;18.50;;;14.50;99.90;;;;;;3593287;40;20259;-78
2021/07/10 03:55:29;;;;;;;21.40;19.27;;;14.50;99.90;;;;;;3593391;40;20537;-78
2021/07/10 03:57:57;;;;;;;23.65;18.38;;;14.40;99.90;;;;;;3592735;40;20706;-78
2021/07/10 04:00:25;;;;;;;21.02;18.00;;;14.50;99.90;;;;;;3593154;40;20258;-77
2021/07/10 04:02:52;;;;;;;23.05;19.20;;;14.40;99.90;;;;;;3593319;40;20245;-78
2021/07/10 04:05:20;;;;;;;21.27;19.08;;;14.40;99.90;;;;;;3593368;40;20234;-78
2021/07/10 04:07:47;;;;;;;20.90;18.70;;;14.40;99.90;;;;;;3592809;40;20235;-78
2021/07/10 04:10:14;;;;;;;24.95;17.02;;;14.50;99.90;;;;;;3593192;40;20251;-79
2021/07/10 04:12:43;;;;;;;19.15;17.25;;;14.50;99.90;;;;;;3593343;40;20796;-77
2021/07/10 04:15:13;;;;;;;23.00;17.15;;;14.70;99.90;;;;;;3592929;40;20246;-80
2021/07/10 04:17:41;;;;;;;20.15;17.38;;;14.70;99.90;;;;;;3593315;40;20241;-78
2021/07/10 04:20:10;;;;;;;18.15;16.30;;;14.60;99.90;;;;;;3593118;40;20227;-80
2021/07/10 04:22:38;;;;;;;20.15;17.08;;;14.60;99.90;;;;;;3593217;40;20246;-77
2021/07/10 04:25:06;;;;;;;18.67;16.48;;;14.60;99.90;;;;;;3593207;40;20243;-78
2021/07/10 04:27:34;;;;;;;18.75;16.73;;;14.70;99.90;;;;;;3591921;40;20234;-78
2021/07/10 04:30:02;;;;;;;17.40;15.63;;;14.70;99.90;;;;;;3582970;40;20530;-78
2021/07/10 04:32:30;;;;;;;17.30;15.75;;;14.60;99.90;;;;;;3583127;40;20667;-78
2021/07/10 04:34:57;;;;;;;16.42;14.85;;;14.50;99.90;;;;;;3583024;40;20682;-79
2021/07/10 04:37:24;;;;;;;19.05;16.67;;;14.60;99.90;;;;;;3594816;39;20230;-80
2021/07/10 04:39:51;;;;;;;20.92;16.10;;;14.80;99.90;;;;;;3612235;39;20245;-77
2021/07/10 04:42:20;;;;;;;18.35;15.38;;;14.50;99.90;;;;;;3603784;40;20245;-77
2021/07/10 04:44:48;;;;;;;17.75;15.82;;;14.50;99.90;;;;;;3610265;39;20640;-77
2021/07/10 04:47:15;;;;;;;17.83;15.93;;;14.70;99.90;;;;;;3595314;40;20243;-75
2021/07/10 04:49:43;;;;;;;16.92;14.80;;;14.60;99.90;;;;;;3602482;40;20265;-75
2021/07/10 04:52:11;;;;;;;19.83;14.40;;;14.80;99.90;;;;;;3605243;39;20237;-75
2021/07/10 04:54:38;;;;;;;16.92;15.20;;;14.80;99.90;;;;;;3605111;40;20246;-75
2021/07/10 04:57:06;;;;;;;19.67;17.65;;;14.70;99.90;;;;;;3598437;40;20229;-75
2021/07/10 04:59:33;;;;;;;16.55;14.98;;;14.80;99.90;;;;;;3599022;40;20625;-75
2021/07/10 05:02:00;;;;;;;15.75;13.75;;;14.80;99.90;;;;;;3598369;40;20256;-74
2021/07/10 05:04:27;;;;;;;16.80;15.18;;;14.90;99.90;;;;;;3599361;40;20245;-75
2021/07/10 05:06:55;;;;;;;15.38;13.85;;;15.00;99.90;;;;;;3597864;40;20592;-75
2021/07/10 05:09:23;;;;;;;15.25;13.75;;;15.20;99.90;;;;;;3602674;40;20513;-75
2021/07/10 05:11:50;;;;;;;15.30;13.73;;;15.20;99.90;;;;;;3604727;40;20548;-75
2021/07/10 05:14:17;;;;;;;17.02;14.85;;;15.30;99.90;;;;;;3596080;40;20241;-75
2021/07/10 05:16:44;;;;;;;19.35;13.90;;;15.40;99.90;;;;;;3595866;40;20242;-75
2021/07/10 05:19:12;;;;;;;18.00;15.30;;;15.30;99.90;;;;;;3604862;40;20347;-74
2021/07/10 05:21:39;;;;;;;15.70;13.98;;;15.40;99.90;;;;;;3604949;40;20237;-75
2021/07/10 05:24:08;;;;;;;15.45;14.05;;;15.50;99.90;;;;;;3604956;40;20230;-75
2021/07/10 05:26:35;;;;;;;20.75;14.45;;;15.80;99.90;;;;;;3604811;40;20625;-75
2021/07/10 05:29:04;;;;;;;14.73;13.13;;;15.80;99.90;;;;;;3599734;40;20241;-76
2021/07/10 05:31:32;;;;;;;16.33;14.63;;;15.80;99.90;;;;;;3597171;40;20602;-75
2021/07/10 05:33:59;;;;;;;15.13;13.27;;;15.80;99.90;;;;;;3595890;40;20254;-75
2021/07/10 05:36:26;;;;;;;14.63;13.20;;;15.80;99.90;;;;;;3605144;40;20237;-75
2021/07/10 05:38:53;;;;;;;17.48;13.48;;;15.80;99.90;;;;;;3595732;40;20230;-76
2021/07/10 05:41:21;;;;;;;17.42;15.82;;;15.90;99.90;;;;;;3604903;40;20233;-75
2021/07/10 05:43:48;;;;;;;17.75;14.00;;;16.10;99.90;;;;;;3605371;40;20633;-75
2021/07/10 05:46:15;;;;;;;15.45;13.88;;;16.20;99.90;;;;;;3595909;40;20238;-75
2021/07/10 05:48:42;;;;;;;16.25;13.32;;;16.30;99.90;;;;;;3604968;40;20260;-75
2021/07/10 05:51:10;;;;;;;13.57;12.27;;;16.60;99.90;;;;;;3605297;40;20253;-75
2021/07/10 05:53:37;;;;;;;12.88;11.63;;;16.60;99.90;;;;;;3605164;40;20630;-75
2021/07/10 05:56:05;;;;;;;13.80;12.43;;;16.70;99.90;;;;;;3605701;40;20241;-75
2021/07/10 05:58:33;;;;;;;14.35;12.73;;;16.70;99.90;;;;;;3606008;40;20240;-76
2021/07/10 06:01:01;;;;;;;14.02;12.63;;;16.70;99.90;;;;;;3605820;40;20264;-76
2021/07/10 06:03:28;;;;;;;15.90;14.05;;;16.80;99.90;;;;;;3605861;40;20249;-75
2021/07/10 06:05:55;;;;;;;16.00;12.48;;;17.10;99.90;;;;;;3606023;40;20242;-76
2021/07/10 06:08:23;;;;;;;18.45;15.50;;;17.20;99.90;;;;;;3606531;40;20253;-75
2021/07/10 06:10:50;;;;;;;13.73;12.35;;;17.30;99.90;;;;;;3604972;40;20253;-75
2021/07/10 06:13:17;;;;;;;12.02;10.93;;;17.20;99.90;;;;;;3605282;40;20237;-75
2021/07/10 06:15:45;;;;;;;12.63;11.43;;;17.30;99.90;;;;;;3606039;40;20262;-75
2021/07/10 06:18:12;;;;;;;11.70;10.60;;;17.50;99.90;;;;;;3597008;40;20264;-75
2021/07/10 06:20:40;;;;;;;12.60;10.60;;;17.30;99.90;;;;;;3605094;40;20245;-75
2021/07/10 06:23:08;;;;;;;10.90;9.77;;;17.30;99.90;;;;;;3602999;40;20296;-75
2021/07/10 06:25:36;;;;;;;12.23;11.10;;;17.40;99.90;;;;;;3595856;40;20239;-76
2021/07/10 06:28:06;;;;;;;12.40;11.20;;;17.50;99.90;;;;;;3595819;40;20246;-75
2021/07/10 06:30:33;;;;;;;12.20;11.00;;;17.40;99.90;;;;;;3595276;40;20234;-76
2021/07/10 06:33:02;;;;;;;12.18;11.13;;;17.20;99.90;;;;;;3595582;40;20261;-76
2021/07/10 06:35:29;;;;;;;13.98;10.57;;;17.20;99.90;;;;;;3585640;40;20238;-75
2021/07/10 06:37:56;;;;;;;11.65;10.52;;;17.50;99.90;;;;;;3595506;40;20515;-75
2021/07/10 06:40:23;;;;;;;11.52;10.48;;;17.40;99.90;;;;;;3585709;40;20614;-75
2021/07/10 06:42:50;;;;;;;10.85;9.75;;;17.50;99.90;;;;;;3595306;40;20230;-75
2021/07/10 06:45:19;;;;;;;13.50;12.20;;;17.60;99.90;;;;;;3595673;40;20245;-76
2021/07/10 06:47:47;;;;;;;10.35;9.38;;;17.80;99.90;;;;;;3595581;40;20246;-75
2021/07/10 06:50:18;;;;;;;11.70;10.57;;;18.00;99.90;;;;;;3595556;40;20245;-76
2021/07/10 06:52:45;;;;;;;9.18;8.27;;;18.10;99.90;;;;;;3596174;40;20239;-76
2021/07/10 06:55:14;;;;;;;10.18;9.18;;;18.10;99.90;;;;;;3596158;40;20253;-76
2021/07/10 06:57:41;;;;;;;10.27;9.38;;;18.20;99.90;;;;;;3594921;40;20247;-74
2021/07/10 07:00:10;;;;;;;9.32;8.48;;;18.20;99.90;;;;;;3595688;40;20449;-75
2021/07/10 07:02:37;;;;;;;10.70;9.60;;;18.30;99.90;;;;;;3595097;40;20242;-75
2021/07/10 07:05:05;;;;;;;9.15;8.32;;;18.20;99.90;;;;;;3586174;40;20246;-75
2021/07/10 07:07:34;;;;;;;9.68;8.18;;;18.40;99.90;;;;;;3595262;40;20484;-76
2021/07/10 07:10:01;;;;;;;11.55;10.15;;;18.70;99.90;;;;;;3595319;40;20586;-75
2021/07/10 07:12:28;;;;;;;8.43;7.68;;;18.70;99.90;;;;;;3595661;40;20570;-75
2021/07/10 07:14:55;;;;;;;10.98;9.85;;;18.80;99.90;;;;;;3595765;40;20242;-75
2021/07/10 07:17:22;;;;;;;10.13;9.23;;;18.90;99.90;;;;;;3596350;40;20242;-76
2021/07/10 07:19:49;;;;;;;9.57;8.77;;;19.20;99.90;;;;;;3587901;40;20566;-75
2021/07/10 07:22:16;;;;;;;10.43;8.65;;;19.20;99.90;;;;;;3597124;40;20211;-76
2021/07/10 07:24:44;;;;;;;10.48;9.52;;;19.00;99.90;;;;;;3605347;40;20226;-75
2021/07/10 07:27:11;;;;;;;10.18;9.18;;;18.90;99.90;;;;;;3605870;40;20282;-75
2021/07/10 07:29:38;;;;;;;9.82;8.88;;;18.80;99.90;;;;;;3606661;40;20241;-77
2021/07/10 07:32:06;;;;;;;10.82;9.82;;;19.00;99.90;;;;;;3597331;40;20540;-75
2021/07/10 07:34:33;;;;;;;11.75;10.05;;;19.30;99.90;;;;;;3605665;40;20232;-75
2021/07/10 07:37:00;;;;;;;10.85;9.85;;;19.40;99.90;;;;;;3607247;40;20508;-75
2021/07/10 07:39:28;;;;;;;11.80;10.10;;;19.50;99.90;;;;;;3607419;40;20229;-76
2021/07/10 07:41:56;;;;;;;10.52;9.40;;;19.40;99.90;;;;;;3606873;40;20537;-75
2021/07/10 07:44:23;;;;;;;9.68;8.77;;;19.40;99.90;;;;;;3606306;40;20523;-75
2021/07/10 07:46:50;;;;;;;9.65;8.15;;;19.10;99.90;;;;;;3606425;40;20612;-76
2021/07/10 07:49:17;;;;;;;10.60;9.15;;;19.10;99.90;;;;;;3603033;40;20540;-75
2021/07/10 07:51:44;;;;;;;10.20;9.15;;;19.10;99.90;;;;;;3600720;40;20240;-75
2021/07/10 07:54:11;;;;;;;11.30;10.15;;;19.20;99.90;;;;;;3603319;40;20221;-76
2021/07/10 07:56:38;;;;;;;9.23;8.30;;;19.30;99.90;;;;;;3602379;40;20572;-76
2021/07/10 07:59:06;;;;;;;9.82;8.35;;;19.40;99.90;;;;;;3601270;40;20233;-75
2021/07/10 08:01:33;;;;;;;10.65;9.13;;;19.60;99.90;;;;;;3605433;40;20237;-76
2021/07/10 08:04:00;;;;;;;8.35;7.75;;;19.60;99.90;;;;;;3608371;40;20237;-75
2021/07/10 08:06:28;;;;;;;9.65;8.32;;;19.50;99.90;;;;;;3598302;40;20257;-76
2021/07/10 08:08:54;;;;;;;10.15;9.23;;;19.80;99.90;;;;;;3605026;40;20598;-77
2021/07/10 08:11:21;;;;;;;8.93;7.93;;;20.00;99.90;;;;;;3602685;40;20243;-76
2021/07/10 08:13:48;;;;;;;9.10;7.63;;;20.20;99.90;;;;;;3607435;40;20222;-76
2021/07/10 08:16:17;;;;;;;10.45;9.52;;;20.20;99.90;;;;;;3604282;40;20279;-77
2021/07/10 08:18:44;;;;;;;10.35;8.55;;;20.50;99.90;;;;;;3602800;40;20235;-78
2021/07/10 08:21:11;;;;;;;9.45;7.03;;;20.50;99.90;;;;;;3602685;40;20329;-77
2021/07/10 08:23:38;;;;;;;8.90;8.02;;;20.20;99.90;;;;;;3605751;39;20278;-79
2021/07/10 08:26:23;;;;;;;8.52;7.72;;;20.10;99.90;;;;;;3611259;39;20818;-78
2021/07/10 08:28:50;;;;;;;9.60;8.38;;;19.80;99.90;;;;;;3599402;40;20250;-78
2021/07/10 08:31:19;;;;;;;9.35;8.52;;;19.70;99.90;;;;;;3607127;39;20235;-78
2021/07/10 08:33:46;;;;;;;12.15;9.85;;;19.80;99.90;;;;;;3612612;39;20238;-79
2021/07/10 08:36:13;;;;;;;10.00;9.00;;;19.90;99.90;;;;;;3603239;39;20238;-79
2021/07/10 08:38:40;;;;;;;10.40;8.50;;;20.20;99.90;;;;;;3603013;39;20243;-79
2021/07/10 08:41:08;;;;;;;9.55;8.55;;;20.30;99.90;;;;;;3603051;39;20269;-81
2021/07/10 08:43:35;;;;;;;10.23;9.23;;;20.30;99.90;;;;;;3602560;39;20249;-80
2021/07/10 08:46:04;;;;;;;10.27;9.13;;;20.40;99.90;;;;;;3603210;39;20288;-79
2021/07/10 08:48:34;;;;;;;11.50;8.90;;;20.50;99.90;;;;;;3603030;39;20237;-83
2021/07/10 08:51:03;;;;;;;8.50;7.78;;;20.80;99.90;;;;;;3603129;39;20235;-79
2021/07/10 08:53:31;;;;;;;10.95;9.95;;;20.70;99.90;;;;;;3604379;39;20235;-78
2021/07/10 08:55:58;;;;;;;9.57;8.18;;;20.80;99.90;;;;;;3594126;40;20215;-78
2021/07/10 08:58:26;;;;;;;9.43;8.52;;;21.00;99.90;;;;;;3602573;40;20203;-77
2021/07/10 09:00:53;;;;;;;11.48;8.40;;;20.30;99.90;;;;;;3603000;40;20234;-77
2021/07/10 09:03:20;;;;;;;9.27;8.45;;;20.40;99.90;;;;;;3604364;39;20223;-78
2021/07/10 09:05:49;;;;;;;8.70;7.85;;;20.70;99.90;;;;;;3606636;39;20238;-76
2021/07/10 09:08:24;;;;;;;10.27;9.20;;;21.20;99.90;;;;;;3605886;40;20223;-79
2021/07/10 09:10:57;;;;;;;10.70;9.63;;;21.20;99.90;;;;;;3607672;40;20241;-79
2021/07/10 09:13:32;;;;;;;8.68;7.93;;;20.80;99.90;;;;;;3602882;40;20230;-77
2021/07/10 09:16:05;;;;;;;8.60;7.75;;;21.20;99.90;;;;;;3600304;39;20236;-77
2021/07/10 09:18:43;;;;;;;8.82;8.02;;;21.70;99.90;;;;;;3602584;39;20257;-82
2021/07/10 09:21:13;;;;;;;8.55;6.90;;;21.90;99.90;;;;;;3604369;39;20218;-77
2021/07/10 09:23:43;;;;;;;7.63;7.00;;;22.00;99.90;;;;;;3596804;39;20219;-79
2021/07/10 09:26:15;;;;;;;13.13;9.00;;;22.30;99.90;;;;;;3605304;39;20234;-78
2021/07/10 09:28:43;;;;;;;12.93;9.43;;;22.50;99.90;;;;;;3608444;40;20245;-76
2021/07/10 09:31:15;;;;;;;10.60;9.60;;;21.80;99.90;;;;;;3606541;40;20238;-76
2021/07/10 09:33:42;;;;;;;10.25;9.32;;;21.00;99.90;;;;;;3600432;40;20242;-75
2021/07/10 09:36:09;;;;;;;10.38;9.48;;;21.00;99.90;;;;;;3606411;40;20257;-76
2021/07/10 09:38:37;;;;;;;14.50;13.13;;;21.70;99.90;;;;;;3602967;40;20241;-76
2021/07/10 09:41:06;;;;;;;10.60;9.60;;;22.00;99.90;;;;;;3602744;40;20270;-75
2021/07/10 09:43:36;;;;;;;13.80;12.25;;;22.00;99.90;;;;;;3605367;40;20233;-76
2021/07/10 09:46:05;;;;;;;14.05;10.52;;;21.90;99.90;;;;;;3598964;40;20237;-76
2021/07/10 09:48:34;;;;;;;10.20;9.27;;;21.70;99.90;;;;;;3604022;40;20602;-76
2021/07/10 09:51:19;;;;;;;8.23;7.40;;;21.50;99.90;;;;;;3605632;40;20254;-76
2021/07/10 09:54:06;;;;;;;10.30;8.23;;;21.30;99.90;;;;;;3608002;40;20222;-76
2021/07/10 09:56:36;;;;;;;9.60;8.77;;;21.40;99.90;;;;;;3598501;40;20238;-75
2021/07/10 09:59:18;;;;;;;9.80;8.82;;;21.50;99.90;;;;;;3599624;40;20253;-76
2021/07/10 10:01:47;;;;;;;9.70;8.90;;;21.40;99.90;;;;;;3608711;40;20256;-76
2021/07/10 10:04:23;;;;;;;10.15;9.10;;;21.40;99.90;;;;;;3607888;40;20270;-76
2021/07/10 10:06:51;;;;;;;9.80;8.82;;;21.40;99.90;;;;;;3605952;40;20323;-76
2021/07/10 10:09:21;;;;;;;36.38;32.65;;;21.50;99.90;;;;;;3605668;40;20265;-76
2021/07/10 10:11:50;;;;;;;10.98;9.93;;;21.90;99.90;;;;;;3598925;40;20239;-76
2021/07/10 10:14:18;;;;;;;11.98;8.07;;;22.40;99.90;;;;;;3604925;40;20230;-77
2021/07/10 10:16:47;;;;;;;9.80;8.52;;;22.70;99.90;;;;;;3607649;40;20636;-77
2021/07/10 10:19:15;;;;;;;12.45;8.32;;;22.90;99.90;;;;;;3605855;40;20265;-76
2021/07/10 10:21:44;;;;;;;10.32;9.40;;;23.00;99.90;;;;;;3604496;40;20249;-78
2021/07/10 10:24:12;;;;;;;10.20;8.75;;;22.90;99.90;;;;;;3598868;40;20233;-76
2021/07/10 10:26:41;;;;;;;10.80;9.05;;;23.20;99.90;;;;;;3608520;40;20233;-76
2021/07/10 10:29:09;;;;;;;9.02;8.13;;;23.50;99.90;;;;;;3603109;40;20256;-79
2021/07/10 10:31:37;;;;;;;17.13;11.23;;;23.40;99.90;;;;;;3600422;40;20237;-76
2021/07/10 10:34:06;;;;;;;10.77;9.55;;;23.30;99.90;;;;;;3606720;40;20233;-76
2021/07/10 10:36:35;;;;;;;10.40;9.40;;;22.50;99.90;;;;;;3598903;40;20238;-75
2021/07/10 10:39:05;;;;;;;10.90;8.32;;;21.80;99.90;;;;;;3609410;40;20248;-77
2021/07/10 10:41:33;;;;;;;10.15;9.15;;;21.90;99.90;;;;;;3608648;40;20242;-76
2021/07/10 10:44:01;;;;;;;10.20;9.32;;;21.80;99.90;;;;;;3597293;40;20247;-76
2021/07/10 10:46:28;;;;;;;10.50;9.27;;;21.60;99.90;;;;;;3603591;40;20527;-76
2021/07/10 10:48:55;;;;;;;10.02;9.00;;;21.80;99.90;;;;;;3609614;39;20225;-79
2021/07/10 10:51:28;;;;;;;9.45;8.55;;;22.20;99.90;;;;;;3594956;40;20246;-77
2021/07/10 10:54:25;;;;;;;9.27;8.30;;;22.80;99.90;;;;;;3605589;40;20257;-76
2021/07/10 10:56:53;;;;;;;9.13;8.10;;;23.10;99.90;;;;;;3605588;40;20238;-76
2021/07/10 10:59:39;;;;;;;7.97;7.22;;;23.40;99.90;;;;;;3610528;39;20249;-76
2021/07/10 11:02:40;;;;;;;10.13;8.15;;;23.50;99.90;;;;;;3610262;39;20246;-75
2021/07/10 11:05:07;;;;;;;8.68;7.97;;;23.60;99.90;;;;;;3607055;40;20237;-75
2021/07/10 11:07:36;;;;;;;13.35;10.70;;;24.10;99.90;;;;;;3607592;40;20210;-76
2021/07/10 11:10:14;;;;;;;7.43;6.72;;;24.20;99.90;;;;;;3608301;39;20252;-76
2021/07/10 11:13:00;;;;;;;8.13;7.30;;;23.90;99.90;;;;;;3609032;40;20237;-76
2021/07/10 11:15:44;;;;;;;11.18;8.18;;;23.90;99.90;;;;;;3607977;40;20520;-76
2021/07/10 11:18:29;;;;;;;7.43;6.78;;;24.20;99.90;;;;;;3608331;40;20244;-75
2021/07/10 11:20:56;;;;;;;9.00;7.47;;;24.20;99.90;;;;;;3600058;40;20272;-75
2021/07/10 11:23:30;;;;;;;8.48;7.72;;;24.70;99.90;;;;;;3610193;39;20234;-78
2021/07/10 11:25:58;;;;;;;7.38;6.68;;;24.80;99.90;;;;;;3609617;40;20253;-78
2021/07/10 11:28:26;;;;;;;7.78;6.82;;;24.80;99.90;;;;;;3600247;40;20295;-79
2021/07/10 11:30:57;;;;;;;6.07;5.57;;;24.90;99.90;;;;;;3602493;39;20657;-80
2021/07/10 11:34:02;;;;;;;6.32;5.72;;;24.90;99.90;;;;;;3611423;39;20244;-77
2021/07/10 11:36:47;;;;;;;7.25;6.25;;;24.70;99.90;;;;;;3601162;40;20234;-78
2021/07/10 11:39:49;;;;;;;6.18;5.68;;;25.00;99.90;;;;;;3601714;39;20276;-82
2021/07/10 11:42:51;;;;;;;7.88;7.07;;;25.30;99.90;;;;;;3598053;40;20303;-82
2021/07/10 11:45:32;;;;;;;8.05;6.38;;;25.20;99.90;;;;;;3602376;40;20252;-78
2021/07/10 11:48:19;;;;;;;6.68;6.07;;;24.80;99.90;;;;;;3604864;40;20249;-77
2021/07/10 11:51:06;;;;;;;8.75;6.15;;;24.70;99.90;;;;;;3603572;40;20277;-76
2021/07/10 11:53:33;;;;;;;6.35;5.75;;;24.20;99.90;;;;;;3602099;40;20526;-76
2021/07/10 11:56:02;;;;;;;8.98;7.63;;;23.80;99.90;;;;;;3610713;39;20229;-85
2021/07/10 11:58:29;;;;;;;6.70;6.20;;;24.20;99.90;;;;;;3602242;39;20843;-83
2021/07/10 12:01:04;;;;;;;6.00;5.43;;;24.40;99.90;;;;;;3612381;39;20229;-86
2021/07/10 12:03:33;;;;;;;6.60;5.97;;;24.50;99.90;;;;;;3607041;39;20275;-83
2021/07/10 12:11:26;;;;;;;6.15;5.65;;;25.30;99.90;;;;;;3582260;40;20211;-84
2021/07/10 12:13:53;;;;;;;5.63;5.15;;;25.40;99.90;;;;;;3564742;40;20224;-82
2021/07/10 12:16:20;;;;;;;5.38;4.88;;;25.40;99.90;;;;;;3573203;40;20292;-83
2021/07/10 12:18:53;;;;;;;5.38;4.88;;;25.90;99.90;;;;;;3590940;40;20236;-82
2021/07/10 12:21:21;;;;;;;9.05;5.55;;;25.50;99.90;;;;;;3564677;40;20227;-83
2021/07/10 12:23:49;;;;;;;5.88;5.18;;;25.10;99.90;;;;;;3565182;40;20247;-81
2021/07/10 12:26:18;;;;;;;5.97;5.32;;;24.90;99.90;;;;;;3573057;40;20220;-81
2021/07/10 12:28:49;;;;;;;4.40;4.07;;;25.10;99.90;;;;;;3572989;40;20824;-82
2021/07/10 12:31:19;;;;;;;6.07;5.57;;;25.30;99.90;;;;;;3572899;40;20240;-81
2021/07/10 12:33:53;;;;;;;5.32;4.93;;;25.40;99.90;;;;;;3563159;40;20240;-81
2021/07/10 12:36:23;;;;;;;5.47;5.03;;;25.40;99.90;;;;;;3572618;40;21004;-81
2021/07/10 12:39:13;;;;;;;5.05;4.65;;;25.20;99.90;;;;;;3572205;40;21032;-81
2021/07/10 12:41:47;;;;;;;5.95;4.40;;;25.40;99.90;;;;;;3571414;40;20244;-80
2021/07/10 12:44:24;;;;;;;5.22;4.82;;;25.30;99.90;;;;;;3574854;40;20208;-80
2021/07/10 12:47:10;;;;;;;4.82;4.45;;;25.40;99.90;;;;;;3571940;40;20270;-79
2021/07/10 12:49:41;;;;;;;5.88;5.30;;;25.10;99.90;;;;;;3572576;40;20221;-80